createdAt,value
2018-07-01T00:02:23.813Z,10.13
2018-07-01T00:07:19.517Z,8.33
2018-07-01T00:12:14.839Z,9.40
2018-07-01T00:17:10.164Z,8.97
2018-07-01T00:22:05.456Z,10.07
2018-07-01T00:27:00.846Z,12.10
2018-07-01T00:31:56.113Z,9.30
2018-07-01T00:36:51.963Z,9.80
2018-07-01T00:41:50.149Z,9.33
2018-07-01T00:46:45.841Z,10.00
2018-07-01T00:51:41.409Z,8.93
2018-07-01T00:56:36.723Z,10.67
2018-07-01T01:01:32.091Z,8.70
2018-07-01T01:06:27.350Z,9.47
2018-07-01T01:11:22.854Z,9.47
2018-07-01T01:16:18.086Z,10.07
2018-07-01T01:21:13.348Z,9.83
2018-07-01T01:26:08.823Z,11.07
2018-07-01T01:31:03.801Z,9.03
2018-07-01T01:35:59.220Z,9.47
2018-07-01T01:41:01.070Z,8.53
2018-07-01T01:46:02.542Z,10.63
2018-07-01T01:52:03.567Z,10.10
2018-07-01T01:57:03.814Z,7.10
2018-07-01T02:02:05.971Z,7.60
2018-07-01T02:07:05.149Z,5.97
2018-07-01T02:12:01.776Z,6.23
2018-07-01T02:16:59.812Z,6.67
2018-07-01T02:21:55.947Z,6.27
2018-07-01T02:26:51.144Z,5.30
2018-07-01T02:31:47.547Z,4.97
2018-07-01T02:36:42.800Z,6.30
2018-07-01T02:41:38.223Z,4.30
2018-07-01T02:46:33.655Z,5.93
2018-07-01T02:51:30.050Z,6.80
2018-07-01T02:56:24.938Z,4.60
2018-07-01T03:01:19.742Z,3.07
2018-07-01T03:06:16.076Z,4.83
2018-07-01T03:11:11.349Z,6.10
2018-07-01T03:16:06.615Z,4.00
2018-07-01T03:21:01.883Z,2.57
2018-07-01T03:25:57.233Z,3.47
2018-07-01T03:30:52.451Z,4.37
2018-07-01T03:35:47.780Z,5.10
2018-07-01T03:40:43.123Z,3.07
2018-07-01T03:45:39.353Z,4.13
2018-07-01T03:50:34.566Z,3.97
2018-07-01T03:55:29.855Z,2.20
2018-07-01T04:00:26.014Z,2.40
2018-07-01T04:05:21.693Z,2.37
2018-07-01T04:10:17.318Z,2.63
2018-07-01T04:15:12.952Z,3.07
2018-07-01T04:20:08.560Z,2.17
2018-07-01T04:25:04.151Z,3.50
2018-07-01T04:29:59.642Z,4.90
2018-07-01T04:34:55.246Z,3.00
2018-07-01T04:39:51.746Z,3.40
2018-07-01T04:44:48.353Z,1.67
2018-07-01T04:49:43.501Z,3.93
2018-07-01T04:54:38.809Z,2.40
2018-07-01T04:59:33.949Z,2.37
2018-07-01T05:04:29.020Z,2.17
2018-07-01T05:09:24.090Z,4.03
2018-07-01T05:14:19.234Z,2.30
2018-07-01T05:19:14.168Z,2.00
2018-07-01T05:24:09.085Z,4.03
2018-07-01T05:29:04.135Z,1.30
2018-07-01T05:33:59.059Z,4.03
2018-07-01T05:38:53.899Z,1.82
2018-07-01T05:43:48.715Z,2.58
2018-07-01T05:48:43.625Z,1.40
2018-07-01T05:53:38.436Z,2.05
2018-07-01T05:58:33.325Z,3.02
2018-07-01T06:03:28.213Z,1.75
2018-07-01T06:08:22.920Z,3.25
2018-07-01T06:13:17.894Z,2.55
2018-07-01T06:18:12.785Z,1.47
2018-07-01T06:23:07.792Z,2.85
2018-07-01T06:28:02.821Z,1.98
2018-07-01T06:32:57.489Z,4.08
2018-07-01T06:37:52.000Z,1.32
2018-07-01T06:42:46.857Z,3.45
2018-07-01T06:47:41.632Z,2.02
2018-07-01T06:52:36.616Z,2.17
2018-07-01T06:57:31.599Z,3.57
2018-07-01T07:02:26.512Z,5.58
2018-07-01T07:07:21.357Z,4.77
2018-07-01T07:12:16.283Z,3.87
2018-07-01T07:17:11.304Z,3.13
2018-07-01T07:22:06.533Z,3.67
2018-07-01T07:27:01.333Z,2.83
2018-07-01T07:31:56.389Z,3.17
2018-07-01T07:36:51.481Z,3.83
2018-07-01T07:41:46.440Z,3.42
2018-07-01T07:46:41.397Z,2.40
2018-07-01T07:51:36.435Z,2.40
2018-07-01T07:56:31.413Z,3.72
2018-07-01T08:01:26.564Z,3.40
2018-07-01T08:06:21.999Z,3.37
2018-07-01T08:11:17.186Z,5.30
2018-07-01T08:16:12.484Z,3.53
2018-07-01T08:21:07.774Z,3.75
2018-07-01T08:26:03.044Z,3.33
2018-07-01T08:30:58.590Z,3.98
2018-07-01T08:35:54.229Z,4.80
2018-07-01T08:40:49.633Z,4.05
2018-07-01T08:45:44.881Z,2.75
2018-07-01T08:50:40.127Z,2.95
2018-07-01T08:55:35.283Z,6.00
2018-07-01T09:00:30.515Z,6.17
2018-07-01T09:05:25.817Z,3.02
2018-07-01T09:10:21.386Z,3.52
2018-07-01T09:15:16.678Z,6.87
2018-07-01T09:20:12.495Z,3.02
2018-07-01T09:25:07.956Z,4.65
2018-07-01T09:30:03.910Z,4.92
2018-07-01T09:35:06.315Z,5.17
2018-07-01T09:40:02.691Z,3.42
2018-07-01T09:44:57.974Z,4.95
2018-07-01T09:49:53.453Z,4.10
2018-07-01T09:54:49.483Z,3.12
2018-07-01T10:00:47.543Z,3.08
2018-07-01T10:05:42.929Z,3.75
2018-07-01T10:10:38.275Z,4.10
2018-07-01T10:15:33.734Z,4.80
2018-07-01T10:20:29.167Z,3.70
2018-07-01T10:36:45.617Z,5.45
2018-07-01T10:41:42.082Z,5.05
2018-07-01T10:46:37.476Z,5.40
2018-07-01T10:51:34.165Z,5.78
2018-07-01T10:56:29.581Z,5.53
2018-07-01T11:01:26.313Z,4.30
2018-07-01T11:06:23.436Z,4.72
2018-07-01T11:11:19.920Z,3.50
2018-07-01T11:16:15.432Z,5.70
2018-07-01T11:21:10.595Z,5.87
2018-07-01T11:26:05.527Z,6.00
2018-07-01T11:31:01.475Z,4.05
2018-07-01T11:35:56.685Z,5.17
2018-07-01T11:40:52.748Z,9.28
2018-07-01T11:45:51.123Z,5.70
2018-07-01T11:50:46.541Z,6.12
2018-07-01T11:55:42.275Z,3.98
2018-07-01T12:00:37.589Z,5.35
2018-07-01T12:05:33.385Z,3.25
2018-07-01T12:10:28.637Z,3.42
2018-07-01T12:15:23.981Z,3.50
2018-07-01T12:20:19.486Z,3.58
2018-07-01T12:25:15.199Z,6.80
2018-07-01T12:30:12.099Z,5.83
2018-07-01T12:35:07.651Z,4.47
2018-07-01T12:40:02.784Z,4.30
2018-07-01T12:44:58.151Z,5.53
2018-07-01T12:49:53.366Z,3.80
2018-07-01T12:54:48.608Z,6.22
2018-07-01T12:59:44.519Z,4.10
2018-07-01T13:04:39.950Z,3.42
2018-07-01T13:09:35.762Z,3.77
2018-07-01T13:14:31.019Z,4.70
2018-07-01T13:19:26.528Z,6.00
2018-07-01T13:24:21.733Z,4.80
2018-07-01T13:29:17.324Z,4.80
2018-07-01T13:34:12.447Z,4.65
2018-07-01T13:39:11.709Z,3.92
2018-07-01T13:44:08.321Z,3.22
2018-07-01T13:49:03.946Z,3.10
2018-07-01T13:53:59.772Z,4.22
2018-07-01T13:58:55.159Z,3.80
2018-07-01T14:03:50.530Z,3.52
2018-07-01T14:08:46.535Z,4.55
2018-07-01T14:13:41.912Z,6.80
2018-07-01T14:18:37.223Z,3.27
2018-07-01T14:23:33.640Z,6.53
2018-07-01T14:28:29.768Z,5.58
2018-07-01T14:33:27.117Z,5.53
2018-07-01T14:38:23.493Z,4.17
2018-07-01T14:43:19.662Z,5.12
2018-07-01T14:48:15.383Z,3.35
2018-07-01T14:53:10.725Z,4.05
2018-07-01T14:58:06.111Z,4.70
2018-07-01T15:03:01.553Z,3.05
2018-07-01T15:07:57.036Z,5.05
2018-07-01T15:12:52.830Z,4.72
2018-07-01T15:17:48.388Z,4.40
2018-07-01T15:22:43.735Z,2.65
2018-07-01T15:27:39.203Z,2.60
2018-07-01T15:32:35.966Z,3.27
2018-07-01T15:37:34.050Z,5.35
2018-07-01T15:42:30.312Z,3.42
2018-07-01T15:47:27.580Z,3.58
2018-07-01T15:52:23.665Z,5.62
2018-07-01T15:57:22.302Z,3.40
2018-07-01T16:02:19.008Z,3.80
2018-07-01T16:07:15.723Z,5.67
2018-07-01T16:12:11.523Z,3.05
2018-07-01T16:17:07.319Z,2.02
2018-07-01T16:22:02.807Z,4.67
2018-07-01T16:27:03.945Z,5.50
2018-07-01T16:32:01.233Z,4.72
2018-07-01T16:37:04.090Z,2.80
2018-07-01T16:41:59.422Z,5.20
2018-07-01T16:46:54.703Z,3.20
2018-07-01T16:51:50.071Z,3.47
2018-07-01T16:56:46.541Z,2.98
2018-07-01T17:01:41.928Z,4.75
2018-07-01T17:06:37.438Z,2.98
2018-07-01T17:11:33.996Z,2.85
2018-07-01T17:16:30.090Z,5.40
2018-07-01T17:21:25.357Z,4.33
2018-07-01T17:26:20.418Z,2.83
2018-07-01T17:33:29.094Z,2.35
2018-07-01T17:38:24.838Z,4.87
2018-07-01T17:43:19.967Z,4.03
2018-07-01T17:48:15.276Z,5.15
2018-07-01T17:54:19.213Z,4.70
2018-07-01T17:59:14.993Z,5.30
2018-07-01T18:04:10.954Z,5.50
2018-07-01T18:09:08.525Z,6.65
2018-07-01T18:14:03.856Z,3.60
2018-07-01T18:18:59.804Z,6.50
2018-07-01T18:24:27.545Z,5.37
2018-07-01T18:28:59.161Z,2.55
2018-07-01T18:33:45.899Z,6.45
2018-07-01T18:38:41.083Z,5.05
2018-07-01T18:43:37.938Z,2.55
2018-07-01T18:48:33.202Z,4.05
2018-07-01T18:53:28.529Z,2.55
2018-07-01T18:58:24.928Z,2.70
2018-07-01T19:03:21.667Z,3.85
2018-07-01T19:08:18.063Z,3.55
2018-07-01T19:13:13.513Z,9.35
2018-07-01T19:18:09.086Z,4.08
2018-07-01T19:24:33.795Z,4.00
2018-07-01T19:29:29.110Z,7.33
2018-07-01T19:34:24.259Z,3.90
2018-07-01T19:39:20.307Z,4.47
2018-07-01T19:44:15.665Z,3.87
2018-07-01T19:49:11.065Z,3.07
2018-07-01T19:54:06.440Z,2.97
2018-07-01T19:59:01.750Z,2.23
2018-07-01T20:03:58.059Z,2.97
2018-07-01T20:08:53.577Z,3.33
2018-07-01T20:13:48.708Z,3.73
2018-07-01T20:18:44.042Z,3.50
2018-07-01T20:23:39.431Z,4.27
2018-07-01T20:28:34.669Z,1.67
2018-07-01T20:33:30.976Z,5.33
2018-07-01T20:38:32.610Z,3.03
2018-07-01T20:44:57.935Z,2.83
2018-07-01T20:49:53.372Z,2.17
2018-07-01T20:54:48.343Z,2.67
2018-07-01T20:59:43.638Z,1.03
2018-07-01T21:04:39.303Z,4.00
2018-07-01T21:09:40.336Z,2.93
2018-07-01T21:14:35.591Z,1.33
2018-07-01T21:19:36.723Z,1.43
2018-07-01T21:24:32.341Z,3.70
2018-07-01T21:29:27.700Z,2.63
2018-07-01T21:35:52.508Z,2.30
2018-07-01T21:40:49.285Z,2.83
2018-07-01T21:45:44.934Z,2.77
2018-07-01T21:50:40.126Z,2.40
2018-07-01T21:55:35.475Z,6.30
2018-07-01T22:00:31.541Z,2.50
2018-07-01T22:05:28.006Z,5.30
2018-07-01T22:10:39.677Z,3.20
2018-07-01T22:15:51.238Z,2.73
2018-07-01T22:20:46.684Z,0.87
2018-07-01T22:25:41.588Z,2.90
2018-07-01T22:30:37.035Z,2.30
2018-07-01T22:35:32.360Z,1.50
2018-07-01T22:40:27.741Z,2.67
2018-07-01T22:45:23.065Z,2.50
2018-07-01T22:50:18.067Z,1.53
2018-07-01T22:55:13.316Z,2.13
2018-07-01T23:00:08.841Z,2.80
2018-07-01T23:05:04.013Z,2.00
2018-07-01T23:09:59.122Z,3.60
2018-07-01T23:14:54.051Z,3.07
2018-07-01T23:19:49.355Z,1.87
2018-07-01T23:24:44.693Z,3.13
2018-07-01T23:29:39.904Z,2.47
2018-07-01T23:34:35.198Z,2.50
2018-07-01T23:39:30.591Z,1.67
2018-07-01T23:44:26.001Z,2.60
2018-07-01T23:49:21.094Z,1.37
2018-07-01T23:54:16.720Z,3.27
2018-07-01T23:59:11.992Z,1.20
